createdAt,value
2018-05-15T00:02:34.377Z,95129
2018-05-15T00:05:05.318Z,95129
2018-05-15T00:07:36.168Z,95133
2018-05-15T00:10:06.955Z,95128
2018-05-15T00:12:37.981Z,95136
2018-05-15T00:15:31.207Z,95135
2018-05-15T00:18:03.063Z,95133
2018-05-15T00:20:33.870Z,95131
2018-05-15T00:23:05.923Z,95130
2018-05-15T00:25:38.991Z,95128
2018-05-15T00:28:15.050Z,95127
2018-05-15T00:30:45.925Z,95128
2018-05-15T00:33:16.746Z,95131
2018-05-15T00:35:49.966Z,95133
2018-05-15T00:38:20.974Z,95129
2018-05-15T00:40:51.753Z,95131
2018-05-15T00:46:32.554Z,95127
2018-05-15T00:49:03.418Z,95127
2018-05-15T00:51:34.159Z,95125
2018-05-15T00:54:04.981Z,95122
2018-05-15T00:56:47.879Z,95124
2018-05-15T00:59:18.673Z,95130
2018-05-15T01:01:49.157Z,95128
2018-05-15T01:04:20.247Z,95126
2018-05-15T01:06:51.089Z,95125
2018-05-15T01:09:21.994Z,95126
2018-05-15T01:11:52.736Z,95132
2018-05-15T01:14:31.773Z,95133
2018-05-15T01:17:02.554Z,95133
2018-05-15T01:19:33.249Z,95126
2018-05-15T01:22:17.225Z,95133
2018-05-15T01:24:48.040Z,95137
2018-05-15T01:27:18.803Z,95137
2018-05-15T01:29:49.649Z,95137
2018-05-15T01:32:20.189Z,95142
2018-05-15T01:34:51.204Z,95144
2018-05-15T01:37:21.960Z,95144
2018-05-15T01:39:52.782Z,95139
2018-05-15T01:42:23.462Z,95139
2018-05-15T01:44:54.338Z,95142
2018-05-15T01:47:41.408Z,95142
2018-05-15T01:50:16.103Z,95145
2018-05-15T01:52:46.682Z,95150
2018-05-15T01:55:19.005Z,95154
2018-05-15T01:57:50.925Z,95157
2018-05-15T02:00:22.889Z,95148
2018-05-15T02:02:56.054Z,95157
2018-05-15T02:05:26.802Z,95149
2018-05-15T02:07:57.691Z,95145
2018-05-15T02:10:28.995Z,95146
2018-05-15T02:12:59.734Z,95148
2018-05-15T02:15:33.378Z,95147
2018-05-15T02:18:05.701Z,95144
2018-05-15T02:20:36.663Z,95144
2018-05-15T02:26:02.490Z,95144
2018-05-15T02:28:33.306Z,95145
2018-05-15T02:31:06.104Z,95143
2018-05-15T02:33:38.941Z,95138
2018-05-15T02:36:10.986Z,95135
2018-05-15T02:38:41.894Z,95132
2018-05-15T02:41:12.613Z,95135
2018-05-15T02:43:43.395Z,95136
2018-05-15T02:46:28.494Z,95136
2018-05-15T02:48:59.274Z,95132
2018-05-15T02:51:30.710Z,95128
2018-05-15T02:54:01.499Z,95135
2018-05-15T02:56:32.231Z,95128
2018-05-15T02:59:02.961Z,95133
2018-05-15T03:01:33.964Z,95130
2018-05-15T03:04:04.901Z,95131
2018-05-15T03:06:46.716Z,95135
2018-05-15T03:09:17.526Z,95133
2018-05-15T03:11:48.467Z,95138
2018-05-15T03:14:19.182Z,95137
2018-05-15T03:16:50.378Z,95133
2018-05-15T03:19:21.190Z,95134
2018-05-15T03:21:52.626Z,95140
2018-05-15T03:24:23.521Z,95141
2018-05-15T03:27:01.923Z,95147
2018-05-15T03:29:32.601Z,95151
2018-05-15T03:32:04.598Z,95149
2018-05-15T03:34:35.330Z,95154
2018-05-15T03:37:06.133Z,95157
2018-05-15T03:39:56.562Z,95157
2018-05-15T03:42:27.319Z,95164
2018-05-15T03:44:58.097Z,95164
2018-05-15T03:47:31.041Z,95164
2018-05-15T03:50:01.827Z,95156
2018-05-15T03:52:32.603Z,95155
2018-05-15T03:55:03.517Z,95157
2018-05-15T03:57:34.586Z,95160
2018-05-15T04:00:06.190Z,95152
2018-05-15T04:02:50.409Z,95159
2018-05-15T04:07:35.084Z,95157
2018-05-15T04:10:05.935Z,95160
2018-05-15T04:12:40.517Z,95167
2018-05-15T04:15:15.752Z,95171
2018-05-15T04:17:46.490Z,95175
2018-05-15T04:20:17.466Z,95170
2018-05-15T04:22:48.300Z,95169
2018-05-15T04:25:19.131Z,95172
2018-05-15T04:27:53.885Z,95175
2018-05-15T04:30:24.604Z,95178
2018-05-15T04:32:55.360Z,95182
2018-05-15T04:35:44.336Z,95182
2018-05-15T04:38:15.074Z,95186
2018-05-15T04:40:45.985Z,95184
2018-05-15T04:43:36.274Z,95186
2018-05-15T04:46:07.048Z,95187
2018-05-15T04:48:37.841Z,95184
2018-05-15T04:51:09.246Z,95187
2018-05-15T04:53:39.970Z,95187
2018-05-15T04:56:11.850Z,95182
2018-05-15T04:58:42.317Z,95186
2018-05-15T05:01:13.206Z,95186
2018-05-15T05:03:43.721Z,95185
2018-05-15T05:06:14.792Z,95191
2018-05-15T05:08:45.233Z,95192
2018-05-15T05:11:16.018Z,95197
2018-05-15T05:13:46.745Z,95200
2018-05-15T05:16:17.161Z,95205
2018-05-15T05:18:47.765Z,95200
2018-05-15T05:21:31.608Z,95196
2018-05-15T05:24:02.254Z,95195
2018-05-15T05:26:33.288Z,95193
2018-05-15T05:29:08.310Z,95195
2018-05-15T05:31:40.262Z,95192
2018-05-15T05:34:11.018Z,95191
2018-05-15T05:36:41.841Z,95193
2018-05-15T05:39:12.614Z,95198
2018-05-15T05:41:43.710Z,95198
2018-05-15T05:44:14.486Z,95198
2018-05-15T05:46:45.322Z,95201
2018-05-15T05:49:15.798Z,95202
2018-05-15T05:51:46.234Z,95202
2018-05-15T05:54:16.970Z,95206
2018-05-15T05:56:47.966Z,95200
2018-05-15T05:59:18.657Z,95198
2018-05-15T06:01:49.499Z,95203
2018-05-15T06:04:20.282Z,95205
2018-05-15T06:06:51.819Z,95207
2018-05-15T06:09:23.822Z,95208
2018-05-15T06:11:56.909Z,95203
2018-05-15T06:14:27.633Z,95203
2018-05-15T06:16:59.042Z,95207
2018-05-15T06:19:29.884Z,95212
2018-05-15T06:22:01.088Z,95212
2018-05-15T06:24:32.187Z,95210
2018-05-15T06:27:03.199Z,95204
2018-05-15T06:29:33.678Z,95214
2018-05-15T06:32:05.162Z,95216
2018-05-15T06:34:36.141Z,95203
2018-05-15T06:37:06.773Z,95201
2018-05-15T06:39:37.470Z,95203
2018-05-15T06:42:08.289Z,95196
2018-05-15T06:44:38.817Z,95198
2018-05-15T06:47:09.909Z,95200
2018-05-15T06:49:40.316Z,95198
2018-05-15T06:52:11.464Z,95198
2018-05-15T06:54:42.002Z,95197
2018-05-15T06:57:13.011Z,95194
2018-05-15T06:59:43.842Z,95190
2018-05-15T07:02:14.625Z,95192
2018-05-15T07:04:45.763Z,95187
2018-05-15T07:07:16.821Z,95196
2018-05-15T07:09:47.510Z,95193
2018-05-15T07:12:18.218Z,95195
2018-05-15T07:14:49.009Z,95189
2018-05-15T07:17:19.745Z,95194
2018-05-15T07:19:50.494Z,95198
2018-05-15T07:22:21.210Z,95194
2018-05-15T07:24:51.885Z,95197
2018-05-15T07:27:22.935Z,95198
2018-05-15T07:29:58.475Z,95200
2018-05-15T07:32:29.549Z,95203
2018-05-15T07:35:00.302Z,95204
2018-05-15T07:37:35.430Z,95204
2018-05-15T07:40:06.322Z,95205
2018-05-15T07:42:37.321Z,95207
2018-05-15T07:45:10.308Z,95203
2018-05-15T07:47:41.089Z,95202
2018-05-15T07:50:24.891Z,95199
2018-05-15T07:52:55.729Z,95202
2018-05-15T07:55:26.453Z,95197
2018-05-15T07:57:57.633Z,95200
2018-05-15T08:00:28.482Z,95202
2018-05-15T08:02:59.335Z,95204
2018-05-15T08:05:30.085Z,95201
2018-05-15T08:08:01.201Z,95199
2018-05-15T08:10:31.990Z,95197
2018-05-15T08:13:05.086Z,95193
2018-05-15T08:15:36.573Z,95197
2018-05-15T08:18:08.657Z,95200
2018-05-15T08:20:40.382Z,95196
2018-05-15T08:23:12.156Z,95197
2018-05-15T08:25:42.775Z,95200
2018-05-15T08:28:13.500Z,95199
2018-05-15T08:30:44.326Z,95196
2018-05-15T08:33:16.711Z,95193
2018-05-15T08:35:47.441Z,95190
2018-05-15T08:38:18.546Z,95190
2018-05-15T08:40:49.250Z,95194
2018-05-15T08:43:19.979Z,95199
2018-05-15T08:45:55.794Z,95202
2018-05-15T08:48:26.934Z,95207
2018-05-15T08:50:57.641Z,95199
2018-05-15T08:53:40.845Z,95200
2018-05-15T08:56:11.647Z,95193
2018-05-15T08:58:42.498Z,95205
2018-05-15T09:01:13.244Z,95199
2018-05-15T09:03:44.221Z,95198
2018-05-15T09:06:16.188Z,95202
2018-05-15T09:08:47.870Z,95201
2018-05-15T09:11:18.586Z,95206
2018-05-15T09:13:49.814Z,95203
2018-05-15T09:16:20.619Z,95199
2018-05-15T09:18:52.833Z,95205
2018-05-15T09:21:23.776Z,95197
2018-05-15T09:23:54.621Z,95198
2018-05-15T09:26:26.840Z,95200
2018-05-15T09:28:57.253Z,95199
2018-05-15T09:31:27.911Z,95197
2018-05-15T09:33:58.742Z,95203
2018-05-15T09:36:29.614Z,95200
2018-05-15T09:39:00.341Z,95202
2018-05-15T09:41:31.185Z,95200
2018-05-15T09:44:01.893Z,95193
2018-05-15T09:46:32.674Z,95206
2018-05-15T09:49:03.864Z,95198
2018-05-15T09:51:34.635Z,95195
2018-05-15T09:54:12.889Z,95195
2018-05-15T09:56:44.124Z,95201
2018-05-15T09:59:14.978Z,95201
2018-05-15T10:01:45.633Z,95202
2018-05-15T10:04:16.430Z,95194
2018-05-15T10:09:46.466Z,95204
2018-05-15T10:12:17.439Z,95200
2018-05-15T10:14:48.895Z,95204
2018-05-15T10:17:19.619Z,95203
2018-05-15T10:19:50.813Z,95208
2018-05-15T10:22:21.582Z,95202
2018-05-15T10:24:52.382Z,95192
2018-05-15T10:27:23.161Z,95198
2018-05-15T10:29:54.115Z,95208
2018-05-15T10:32:24.906Z,95202
2018-05-15T10:34:56.954Z,95195
2018-05-15T10:37:27.755Z,95191
2018-05-15T10:39:58.869Z,95198
2018-05-15T10:42:29.449Z,95193
2018-05-15T10:44:59.861Z,95188
2018-05-15T10:47:30.899Z,95183
2018-05-15T10:50:02.333Z,95186
2018-05-15T10:52:33.022Z,95183
2018-05-15T10:55:11.626Z,95178
2018-05-15T10:57:42.380Z,95182
2018-05-15T11:00:13.540Z,95181
2018-05-15T11:02:44.442Z,95189
2018-05-15T11:05:16.394Z,95166
2018-05-15T11:07:47.906Z,95168
2018-05-15T11:10:31.385Z,95162
2018-05-15T11:13:02.281Z,95163
2018-05-15T11:15:32.998Z,95155
2018-05-15T11:18:15.442Z,95162
2018-05-15T11:20:57.231Z,95158
2018-05-15T11:23:42.201Z,95159
2018-05-15T11:26:13.656Z,95160
2018-05-15T11:28:45.214Z,95162
2018-05-15T11:31:17.346Z,95153
2018-05-15T11:33:48.482Z,95159
2018-05-15T11:36:19.266Z,95149
2018-05-15T11:38:49.752Z,95148
2018-05-15T11:41:20.879Z,95143
2018-05-15T11:43:52.230Z,95139
2018-05-15T11:46:22.969Z,95133
2018-05-15T11:48:54.095Z,95128
2018-05-15T11:51:25.176Z,95126
2018-05-15T11:53:55.130Z,95129
2018-05-15T11:56:27.174Z,95124
2018-05-15T11:58:57.781Z,95114
2018-05-15T12:01:29.091Z,95108
2018-05-15T12:03:59.830Z,95117
2018-05-15T12:06:47.487Z,95102
2018-05-15T12:09:18.317Z,95103
2018-05-15T12:11:49.174Z,95103
2018-05-15T12:14:19.990Z,95103
2018-05-15T12:16:52.017Z,95104
2018-05-15T12:19:22.862Z,95108
2018-05-15T12:21:53.973Z,95102
2018-05-15T12:24:24.720Z,95093
2018-05-15T12:26:55.212Z,95097
2018-05-15T12:29:26.374Z,95101
2018-05-15T12:31:57.625Z,95100
2018-05-15T12:34:28.426Z,95094
2018-05-15T12:36:59.173Z,95104
2018-05-15T12:39:29.930Z,95102
2018-05-15T12:42:01.350Z,95118
2018-05-15T12:44:32.808Z,95135
2018-05-15T12:47:03.242Z,95138
2018-05-15T12:49:33.968Z,95137
2018-05-15T12:52:06.098Z,95142
2018-05-15T12:54:36.900Z,95145
2018-05-15T12:57:29.438Z,95147
2018-05-15T13:00:00.212Z,95156
2018-05-15T13:02:31.380Z,95152
2018-05-15T13:05:04.030Z,95146
2018-05-15T13:07:35.041Z,95154
2018-05-15T13:10:05.944Z,95156
2018-05-15T13:12:36.915Z,95176
2018-05-15T13:15:07.982Z,95198
2018-05-15T13:17:39.634Z,95189
2018-05-15T13:20:11.493Z,95163
2018-05-15T13:22:45.370Z,95163
2018-05-15T13:25:15.775Z,95164
2018-05-15T13:27:46.534Z,95163
2018-05-15T13:30:17.802Z,95163
2018-05-15T13:32:48.874Z,95153
2018-05-15T13:35:19.787Z,95146
2018-05-15T13:37:50.503Z,95145
2018-05-15T13:40:23.661Z,95140
2018-05-15T13:42:54.433Z,95137
2018-05-15T13:45:25.158Z,95133
2018-05-15T13:47:55.893Z,95127
2018-05-15T13:50:27.474Z,95128
2018-05-15T13:52:59.331Z,95122
2018-05-15T13:55:33.633Z,95117
2018-05-15T13:58:06.330Z,95118
2018-05-15T14:00:37.231Z,95113
2018-05-15T14:03:09.547Z,95107
2018-05-15T14:05:40.278Z,95106
2018-05-15T14:08:13.370Z,95108
2018-05-15T14:10:43.921Z,95105
2018-05-15T14:13:21.478Z,95101
2018-05-15T14:15:52.216Z,95097
2018-05-15T14:18:23.273Z,95086
2018-05-15T14:21:08.559Z,95089
2018-05-15T14:23:39.274Z,95078
2018-05-15T14:26:09.954Z,95071
2018-05-15T14:28:49.618Z,95070
2018-05-15T14:31:20.414Z,95070
2018-05-15T14:33:51.164Z,95066
2018-05-15T14:36:22.059Z,95062
2018-05-15T14:38:53.102Z,95063
2018-05-15T14:41:32.598Z,95057
2018-05-15T14:44:03.628Z,95068
2018-05-15T14:46:34.368Z,95079
2018-05-15T14:49:05.197Z,95083
2018-05-15T14:51:48.243Z,95089
2018-05-15T14:54:19.420Z,95088
2018-05-15T14:56:50.289Z,95087
2018-05-15T14:59:21.415Z,95088
2018-05-15T15:01:51.933Z,95082
2018-05-15T15:04:22.362Z,95088
2018-05-15T15:06:52.777Z,95085
2018-05-15T15:09:23.185Z,95079
2018-05-15T15:11:53.946Z,95082
2018-05-15T15:14:24.811Z,95083
2018-05-15T15:16:55.593Z,95081
2018-05-15T15:19:26.737Z,95079
2018-05-15T15:21:57.487Z,95085
2018-05-15T15:24:41.586Z,95082
2018-05-15T15:27:11.998Z,95091
2018-05-15T15:29:42.813Z,95096
2018-05-15T15:32:13.557Z,95095
2018-05-15T15:34:44.382Z,95100
2018-05-15T15:37:15.717Z,95104
2018-05-15T15:39:46.399Z,95159
2018-05-15T15:42:17.226Z,95156
2018-05-15T15:44:47.691Z,95165
2018-05-15T15:47:18.148Z,95159
2018-05-15T15:49:50.811Z,95152
2018-05-15T15:52:21.822Z,95144
2018-05-15T15:54:52.640Z,95137
2018-05-15T15:57:23.408Z,95129
2018-05-15T15:59:54.477Z,95130
2018-05-15T16:02:25.373Z,95133
2018-05-15T16:08:09.630Z,95126
2018-05-15T16:10:40.421Z,95124
2018-05-15T16:13:12.413Z,95123
2018-05-15T16:15:43.633Z,95120
2018-05-15T16:18:14.428Z,95120
2018-05-15T16:20:46.558Z,95105
2018-05-15T16:23:17.337Z,95108
2018-05-15T16:25:48.158Z,95106
2018-05-15T16:28:33.920Z,95108
2018-05-15T16:31:05.009Z,95110
2018-05-15T16:33:35.426Z,95118
2018-05-15T16:36:06.321Z,95121
2018-05-15T16:38:36.746Z,95120
2018-05-15T16:41:07.182Z,95120
2018-05-15T16:43:37.581Z,95123
2018-05-15T16:46:07.997Z,95121
2018-05-15T16:48:38.446Z,95119
2018-05-15T16:51:08.844Z,95119
2018-05-15T16:53:39.643Z,95118
2018-05-15T16:59:05.822Z,95104
2018-05-15T17:01:36.830Z,95094
2018-05-15T17:04:07.628Z,95086
2018-05-15T17:06:38.462Z,95094
2018-05-15T17:09:09.245Z,95089
2018-05-15T17:12:01.183Z,95086
2018-05-15T17:14:32.156Z,95083
2018-05-15T17:17:03.112Z,95084
2018-05-15T17:19:34.793Z,95084
2018-05-15T17:22:06.188Z,95074
2018-05-15T17:24:37.120Z,95071
2018-05-15T17:27:09.243Z,95067
2018-05-15T17:29:40.043Z,95068
2018-05-15T17:32:11.289Z,95065
2018-05-15T17:34:42.085Z,95058
2018-05-15T17:37:13.061Z,95057
2018-05-15T17:39:43.724Z,95056
2018-05-15T17:42:20.716Z,95054
2018-05-15T17:44:51.590Z,95044
2018-05-15T17:47:22.697Z,95036
2018-05-15T17:49:53.329Z,95035
2018-05-15T17:52:24.045Z,95036
2018-05-15T17:54:54.856Z,95037
2018-05-15T17:57:26.957Z,95030
2018-05-15T17:59:57.615Z,95034
2018-05-15T18:02:28.377Z,95038
2018-05-15T18:04:58.785Z,95043
2018-05-15T18:07:29.405Z,95044
2018-05-15T18:10:01.169Z,95041
2018-05-15T18:15:32.672Z,95038
2018-05-15T18:18:05.829Z,95032
2018-05-15T18:20:38.533Z,95036
2018-05-15T18:23:10.577Z,95042
2018-05-15T18:25:41.239Z,95046
2018-05-15T18:28:12.324Z,95050
2018-05-15T18:30:44.534Z,95059
2018-05-15T18:33:15.321Z,95058
2018-05-15T18:35:46.119Z,95062
2018-05-15T18:38:19.446Z,95062
2018-05-15T18:40:50.626Z,95063
2018-05-15T18:43:22.321Z,95074
2018-05-15T18:45:53.117Z,95078
2018-05-15T18:48:24.347Z,95079
2018-05-15T18:50:56.364Z,95085
2018-05-15T18:53:27.153Z,95092
2018-05-15T18:55:58.783Z,95093
2018-05-15T18:58:29.314Z,95095
2018-05-15T19:00:59.715Z,95094
2018-05-15T19:03:30.746Z,95097
2018-05-15T19:06:01.361Z,95103
2018-05-15T19:08:33.849Z,95102
2018-05-15T19:11:04.876Z,95098
2018-05-15T19:13:35.610Z,95102
2018-05-15T19:16:06.605Z,95105
2018-05-15T19:18:39.289Z,95102
2018-05-15T19:21:10.098Z,95094
2018-05-15T19:23:41.262Z,95094
2018-05-15T19:26:11.909Z,95097
2018-05-15T19:28:43.204Z,95097
2018-05-15T19:31:22.661Z,95094
2018-05-15T19:33:53.786Z,95105
2018-05-15T19:36:28.750Z,95098
2018-05-15T19:39:04.053Z,95105
2018-05-15T19:41:36.905Z,95106
2018-05-15T19:44:08.597Z,95119
2018-05-15T19:46:39.417Z,95112
2018-05-15T19:49:10.432Z,95121
2018-05-15T19:51:41.522Z,95112
2018-05-15T19:54:12.227Z,95111
2018-05-15T19:56:42.814Z,95120
2018-05-15T19:59:13.444Z,95120
2018-05-15T20:01:44.245Z,95118
2018-05-15T20:04:14.665Z,95118
2018-05-15T20:06:45.361Z,95114
2018-05-15T20:09:27.862Z,95110
2018-05-15T20:11:58.385Z,95109
2018-05-15T20:14:29.508Z,95105
2018-05-15T20:17:12.868Z,95111
2018-05-15T20:19:43.561Z,95123
2018-05-15T20:22:14.326Z,95117
2018-05-15T20:24:45.418Z,95115
2018-05-15T20:27:16.282Z,95107
2018-05-15T20:29:47.110Z,95108
2018-05-15T20:32:17.877Z,95109
2018-05-15T20:34:50.805Z,95112
2018-05-15T20:37:21.648Z,95110
2018-05-15T20:39:52.704Z,95110
2018-05-15T20:42:23.537Z,95110
2018-05-15T20:44:55.110Z,95107
2018-05-15T20:47:33.132Z,95109
2018-05-15T20:50:04.399Z,95110
2018-05-15T20:52:35.086Z,95114
2018-05-15T20:55:06.187Z,95109
2018-05-15T20:57:37.110Z,95111
2018-05-15T21:00:08.839Z,95110
2018-05-15T21:02:40.178Z,95105
2018-05-15T21:05:12.398Z,95104
2018-05-15T21:07:43.245Z,95107
2018-05-15T21:10:16.194Z,95111
2018-05-15T21:12:47.066Z,95116
2018-05-15T21:15:20.351Z,95111
2018-05-15T21:17:56.814Z,95115
2018-05-15T21:20:29.413Z,95117
2018-05-15T21:23:00.110Z,95108
2018-05-15T21:25:32.574Z,95107
2018-05-15T21:28:04.270Z,95103
2018-05-15T21:30:35.289Z,95100
2018-05-15T21:33:05.749Z,95104
2018-05-15T21:35:37.666Z,95097
2018-05-15T21:38:09.422Z,95098
2018-05-15T21:40:39.846Z,95099
2018-05-15T21:43:11.185Z,95100
2018-05-15T21:45:41.758Z,95104
2018-05-15T21:48:12.211Z,95105
2018-05-15T21:50:43.357Z,95101
2018-05-15T21:53:14.824Z,95101
2018-05-15T21:55:45.623Z,95098
2018-05-15T21:58:21.293Z,95106
2018-05-15T22:00:52.101Z,95104
2018-05-15T22:03:22.770Z,95110
2018-05-15T22:05:53.780Z,95099
2018-05-15T22:08:24.489Z,95100
2018-05-15T22:10:55.514Z,95101
2018-05-15T22:13:37.481Z,95102
2018-05-15T22:16:25.123Z,95114
2018-05-15T22:19:12.470Z,95111
2018-05-15T22:22:00.766Z,95108
2018-05-15T22:24:37.484Z,95110
2018-05-15T22:27:08.810Z,95107
2018-05-15T22:29:39.654Z,95096
2018-05-15T22:32:10.478Z,95093
2018-05-15T22:34:41.627Z,95093
2018-05-15T22:37:12.491Z,95087
2018-05-15T22:39:43.231Z,95089
2018-05-15T22:42:15.034Z,95084
2018-05-15T22:44:45.840Z,95085
2018-05-15T22:47:16.796Z,95091
2018-05-15T22:49:47.561Z,95080
2018-05-15T22:52:18.460Z,95076
2018-05-15T22:54:56.098Z,95083
2018-05-15T22:57:26.953Z,95078
2018-05-15T22:59:57.616Z,95083
2018-05-15T23:02:28.301Z,95074
2018-05-15T23:04:59.089Z,95076
2018-05-15T23:07:32.600Z,95076
2018-05-15T23:10:04.125Z,95075
2018-05-15T23:12:35.077Z,95073
2018-05-15T23:18:05.353Z,95073
2018-05-15T23:20:37.633Z,95073
2018-05-15T23:23:10.765Z,95074
2018-05-15T23:25:41.601Z,95073
2018-05-15T23:28:14.629Z,95072
2018-05-15T23:30:45.525Z,95074
2018-05-15T23:33:18.746Z,95073
2018-05-15T23:35:55.672Z,95069
2018-05-15T23:38:26.533Z,95072
2018-05-15T23:40:57.203Z,95071
2018-05-15T23:43:28.166Z,95071
2018-05-15T23:45:59.066Z,95069
2018-05-15T23:48:33.473Z,95069
2018-05-15T23:51:04.702Z,95067
2018-05-15T23:53:38.780Z,95069
2018-05-15T23:56:10.142Z,95064
2018-05-15T23:58:40.993Z,95062
